sensor_id;sensor_type;location;lat;lon;timestamp;P1;durP1;ratioP1;P2;durP2;ratioP2
58472;SDS011;44775;51.564;5.460;2023-05-14T00:02:07;11.82;;;9.70;;
58472;SDS011;44775;51.564;5.460;2023-05-14T00:04:32;10.75;;;9.35;;
58472;SDS011;44775;51.564;5.460;2023-05-14T00:06:57;11.20;;;9.77;;
58472;SDS011;44775;51.564;5.460;2023-05-14T00:09:23;14.45;;;11.77;;
58472;SDS011;44775;51.564;5.460;2023-05-14T00:11:48;13.82;;;9.95;;
58472;SDS011;44775;51.564;5.460;2023-05-14T00:14:13;13.38;;;11.98;;
58472;SDS011;44775;51.564;5.460;2023-05-14T00:16:39;11.88;;;10.65;;
58472;SDS011;44775;51.564;5.460;2023-05-14T00:19:04;12.75;;;10.98;;
58472;SDS011;44775;51.564;5.460;2023-05-14T00:21:30;11.68;;;10.48;;
58472;SDS011;44775;51.564;5.460;2023-05-14T00:23:55;16.58;;;14.02;;
58472;SDS011;44775;51.564;5.460;2023-05-14T00:26:21;16.92;;;14.30;;
58472;SDS011;44775;51.564;5.460;2023-05-14T00:28:46;14.07;;;11.85;;
58472;SDS011;44775;51.564;5.460;2023-05-14T00:31:13;13.70;;;11.85;;
58472;SDS011;44775;51.564;5.460;2023-05-14T00:33:38;15.73;;;14.02;;
58472;SDS011;44775;51.564;5.460;2023-05-14T00:36:03;19.88;;;14.75;;
58472;SDS011;44775;51.564;5.460;2023-05-14T00:38:28;10.90;;;9.82;;
58472;SDS011;44775;51.564;5.460;2023-05-14T00:40:54;17.83;;;14.98;;
58472;SDS011;44775;51.564;5.460;2023-05-14T00:43:19;14.35;;;10.70;;
58472;SDS011;44775;51.564;5.460;2023-05-14T00:45:46;16.25;;;13.55;;
58472;SDS011;44775;51.564;5.460;2023-05-14T00:48:16;16.55;;;14.85;;
58472;SDS011;44775;51.564;5.460;2023-05-14T00:50:42;14.43;;;12.88;;
58472;SDS011;44775;51.564;5.460;2023-05-14T00:53:07;15.23;;;11.32;;
58472;SDS011;44775;51.564;5.460;2023-05-14T00:55:35;17.45;;;15.02;;
58472;SDS011;44775;51.564;5.460;2023-05-14T00:58:02;13.30;;;11.90;;
58472;SDS011;44775;51.564;5.460;2023-05-14T01:00:31;18.92;;;15.65;;
58472;SDS011;44775;51.564;5.460;2023-05-14T01:02:56;16.27;;;12.73;;
58472;SDS011;44775;51.564;5.460;2023-05-14T01:05:25;18.70;;;15.90;;
58472;SDS011;44775;51.564;5.460;2023-05-14T01:08:03;18.33;;;16.38;;
58472;SDS011;44775;51.564;5.460;2023-05-14T01:10:52;18.08;;;15.82;;
58472;SDS011;44775;51.564;5.460;2023-05-14T01:13:37;21.50;;;17.50;;
58472;SDS011;44775;51.564;5.460;2023-05-14T01:16:11;21.02;;;17.20;;
58472;SDS011;44775;51.564;5.460;2023-05-14T01:18:38;19.05;;;14.50;;
58472;SDS011;44775;51.564;5.460;2023-05-14T01:21:05;24.73;;;18.02;;
58472;SDS011;44775;51.564;5.460;2023-05-14T01:23:44;19.02;;;16.88;;
58472;SDS011;44775;51.564;5.460;2023-05-14T01:26:09;21.75;;;18.75;;
58472;SDS011;44775;51.564;5.460;2023-05-14T01:28:34;16.73;;;14.18;;
58472;SDS011;44775;51.564;5.460;2023-05-14T01:31:11;17.65;;;15.32;;
58472;SDS011;44775;51.564;5.460;2023-05-14T01:33:42;19.77;;;16.63;;
58472;SDS011;44775;51.564;5.460;2023-05-14T01:36:08;17.58;;;14.02;;
58472;SDS011;44775;51.564;5.460;2023-05-14T01:38:34;16.27;;;13.82;;
58472;SDS011;44775;51.564;5.460;2023-05-14T01:41:01;23.77;;;18.77;;
58472;SDS011;44775;51.564;5.460;2023-05-14T01:43:27;23.75;;;19.33;;
58472;SDS011;44775;51.564;5.460;2023-05-14T01:45:53;24.25;;;19.17;;
58472;SDS011;44775;51.564;5.460;2023-05-14T01:48:19;20.73;;;16.13;;
58472;SDS011;44775;51.564;5.460;2023-05-14T01:50:44;27.23;;;20.42;;
58472;SDS011;44775;51.564;5.460;2023-05-14T01:53:10;17.80;;;14.70;;
58472;SDS011;44775;51.564;5.460;2023-05-14T01:55:35;22.38;;;19.98;;
58472;SDS011;44775;51.564;5.460;2023-05-14T01:58:00;22.85;;;17.65;;
58472;SDS011;44775;51.564;5.460;2023-05-14T02:00:26;19.08;;;16.33;;
58472;SDS011;44775;51.564;5.460;2023-05-14T02:02:51;16.38;;;14.77;;
58472;SDS011;44775;51.564;5.460;2023-05-14T02:05:16;24.58;;;19.35;;
58472;SDS011;44775;51.564;5.460;2023-05-14T02:07:42;23.70;;;20.38;;
58472;SDS011;44775;51.564;5.460;2023-05-14T02:10:08;26.88;;;21.48;;
58472;SDS011;44775;51.564;5.460;2023-05-14T02:12:33;26.73;;;21.67;;
58472;SDS011;44775;51.564;5.460;2023-05-14T02:14:59;23.75;;;18.77;;
58472;SDS011;44775;51.564;5.460;2023-05-14T02:17:24;24.38;;;20.58;;
58472;SDS011;44775;51.564;5.460;2023-05-14T02:19:50;22.48;;;18.75;;
58472;SDS011;44775;51.564;5.460;2023-05-14T02:22:15;20.48;;;17.60;;
58472;SDS011;44775;51.564;5.460;2023-05-14T02:24:41;26.02;;;20.70;;
58472;SDS011;44775;51.564;5.460;2023-05-14T02:27:06;22.92;;;17.90;;
58472;SDS011;44775;51.564;5.460;2023-05-14T02:29:32;22.10;;;18.05;;
58472;SDS011;44775;51.564;5.460;2023-05-14T02:31:57;29.27;;;21.35;;
58472;SDS011;44775;51.564;5.460;2023-05-14T02:34:22;27.52;;;22.75;;
58472;SDS011;44775;51.564;5.460;2023-05-14T02:36:47;28.25;;;21.85;;
58472;SDS011;44775;51.564;5.460;2023-05-14T02:39:13;26.35;;;20.90;;
58472;SDS011;44775;51.564;5.460;2023-05-14T02:41:38;26.35;;;21.10;;
58472;SDS011;44775;51.564;5.460;2023-05-14T02:44:03;27.77;;;22.75;;
58472;SDS011;44775;51.564;5.460;2023-05-14T02:46:29;25.83;;;20.33;;
58472;SDS011;44775;51.564;5.460;2023-05-14T02:48:55;27.35;;;22.38;;
58472;SDS011;44775;51.564;5.460;2023-05-14T02:51:21;19.25;;;17.08;;
58472;SDS011;44775;51.564;5.460;2023-05-14T02:53:46;29.88;;;22.08;;
58472;SDS011;44775;51.564;5.460;2023-05-14T02:56:12;27.20;;;22.27;;
58472;SDS011;44775;51.564;5.460;2023-05-14T02:58:37;30.15;;;23.83;;
58472;SDS011;44775;51.564;5.460;2023-05-14T03:01:02;27.65;;;23.65;;
58472;SDS011;44775;51.564;5.460;2023-05-14T03:03:28;26.45;;;20.35;;
58472;SDS011;44775;51.564;5.460;2023-05-14T03:05:54;32.88;;;23.20;;
58472;SDS011;44775;51.564;5.460;2023-05-14T03:08:20;25.85;;;21.38;;
58472;SDS011;44775;51.564;5.460;2023-05-14T03:10:45;27.02;;;22.63;;
58472;SDS011;44775;51.564;5.460;2023-05-14T03:13:10;32.28;;;22.95;;
58472;SDS011;44775;51.564;5.460;2023-05-14T03:15:36;27.23;;;21.70;;
58472;SDS011;44775;51.564;5.460;2023-05-14T03:18:01;30.48;;;25.15;;
58472;SDS011;44775;51.564;5.460;2023-05-14T03:20:26;31.10;;;23.35;;
58472;SDS011;44775;51.564;5.460;2023-05-14T03:22:52;33.42;;;26.38;;
58472;SDS011;44775;51.564;5.460;2023-05-14T03:25:18;35.80;;;27.42;;
58472;SDS011;44775;51.564;5.460;2023-05-14T03:27:43;28.20;;;22.90;;
58472;SDS011;44775;51.564;5.460;2023-05-14T03:30:08;28.08;;;22.25;;
58472;SDS011;44775;51.564;5.460;2023-05-14T03:32:35;37.13;;;26.73;;
58472;SDS011;44775;51.564;5.460;2023-05-14T03:35:01;29.20;;;23.67;;
58472;SDS011;44775;51.564;5.460;2023-05-14T03:37:26;33.25;;;24.40;;
58472;SDS011;44775;51.564;5.460;2023-05-14T03:39:51;29.35;;;22.67;;
58472;SDS011;44775;51.564;5.460;2023-05-14T03:42:17;31.75;;;24.10;;
58472;SDS011;44775;51.564;5.460;2023-05-14T03:44:42;25.05;;;19.65;;
58472;SDS011;44775;51.564;5.460;2023-05-14T03:47:07;25.50;;;20.38;;
58472;SDS011;44775;51.564;5.460;2023-05-14T03:49:33;41.60;;;28.15;;
58472;SDS011;44775;51.564;5.460;2023-05-14T03:51:58;29.52;;;22.65;;
58472;SDS011;44775;51.564;5.460;2023-05-14T03:54:24;34.30;;;27.13;;
58472;SDS011;44775;51.564;5.460;2023-05-14T03:56:50;37.60;;;28.67;;
58472;SDS011;44775;51.564;5.460;2023-05-14T03:59:15;30.83;;;23.83;;
58472;SDS011;44775;51.564;5.460;2023-05-14T04:01:40;38.90;;;27.10;;
58472;SDS011;44775;51.564;5.460;2023-05-14T04:04:06;36.25;;;25.70;;
58472;SDS011;44775;51.564;5.460;2023-05-14T04:06:31;37.60;;;28.20;;
58472;SDS011;44775;51.564;5.460;2023-05-14T04:08:57;41.45;;;28.20;;
58472;SDS011;44775;51.564;5.460;2023-05-14T04:11:22;25.30;;;19.92;;
58472;SDS011;44775;51.564;5.460;2023-05-14T04:13:47;32.20;;;23.52;;
58472;SDS011;44775;51.564;5.460;2023-05-14T04:16:13;33.47;;;24.15;;
58472;SDS011;44775;51.564;5.460;2023-05-14T04:18:38;37.10;;;26.25;;
58472;SDS011;44775;51.564;5.460;2023-05-14T04:21:04;25.08;;;20.98;;
58472;SDS011;44775;51.564;5.460;2023-05-14T04:23:29;37.60;;;27.15;;
58472;SDS011;44775;51.564;5.460;2023-05-14T04:25:56;38.60;;;25.02;;
58472;SDS011;44775;51.564;5.460;2023-05-14T04:28:21;36.45;;;26.08;;
58472;SDS011;44775;51.564;5.460;2023-05-14T04:30:47;36.70;;;27.80;;
58472;SDS011;44775;51.564;5.460;2023-05-14T04:33:12;34.67;;;25.67;;
58472;SDS011;44775;51.564;5.460;2023-05-14T04:35:38;17.67;;;15.68;;
58472;SDS011;44775;51.564;5.460;2023-05-14T04:38:03;34.35;;;25.67;;
58472;SDS011;44775;51.564;5.460;2023-05-14T04:40:28;24.10;;;18.48;;
58472;SDS011;44775;51.564;5.460;2023-05-14T04:42:55;35.42;;;25.20;;
58472;SDS011;44775;51.564;5.460;2023-05-14T04:45:20;36.45;;;26.02;;
58472;SDS011;44775;51.564;5.460;2023-05-14T04:47:46;35.80;;;27.02;;
58472;SDS011;44775;51.564;5.460;2023-05-14T04:50:11;32.60;;;22.38;;
58472;SDS011;44775;51.564;5.460;2023-05-14T04:52:37;31.92;;;22.77;;
58472;SDS011;44775;51.564;5.460;2023-05-14T04:55:03;28.33;;;20.23;;
58472;SDS011;44775;51.564;5.460;2023-05-14T04:57:28;29.13;;;21.75;;
58472;SDS011;44775;51.564;5.460;2023-05-14T04:59:54;34.05;;;25.65;;
58472;SDS011;44775;51.564;5.460;2023-05-14T05:02:19;33.28;;;23.27;;
58472;SDS011;44775;51.564;5.460;2023-05-14T05:04:44;33.92;;;24.65;;
58472;SDS011;44775;51.564;5.460;2023-05-14T05:07:11;35.17;;;24.60;;
58472;SDS011;44775;51.564;5.460;2023-05-14T05:09:37;30.13;;;20.67;;
58472;SDS011;44775;51.564;5.460;2023-05-14T05:12:02;21.70;;;17.40;;
58472;SDS011;44775;51.564;5.460;2023-05-14T05:14:28;21.65;;;17.70;;
58472;SDS011;44775;51.564;5.460;2023-05-14T05:16:53;22.10;;;16.42;;
58472;SDS011;44775;51.564;5.460;2023-05-14T05:19:18;24.60;;;19.23;;
58472;SDS011;44775;51.564;5.460;2023-05-14T05:21:44;27.25;;;19.02;;
58472;SDS011;44775;51.564;5.460;2023-05-14T05:24:09;28.60;;;21.30;;
58472;SDS011;44775;51.564;5.460;2023-05-14T05:26:34;19.63;;;15.30;;
58472;SDS011;44775;51.564;5.460;2023-05-14T05:29:03;23.87;;;17.77;;
58472;SDS011;44775;51.564;5.460;2023-05-14T05:31:29;23.40;;;17.75;;
58472;SDS011;44775;51.564;5.460;2023-05-14T05:33:55;29.63;;;20.88;;
58472;SDS011;44775;51.564;5.460;2023-05-14T05:36:21;32.97;;;23.08;;
58472;SDS011;44775;51.564;5.460;2023-05-14T05:38:46;24.52;;;17.73;;
58472;SDS011;44775;51.564;5.460;2023-05-14T05:41:12;28.33;;;19.80;;
58472;SDS011;44775;51.564;5.460;2023-05-14T05:43:39;30.42;;;21.98;;
58472;SDS011;44775;51.564;5.460;2023-05-14T05:46:05;28.20;;;18.35;;
58472;SDS011;44775;51.564;5.460;2023-05-14T05:48:31;18.92;;;15.38;;
58472;SDS011;44775;51.564;5.460;2023-05-14T05:50:56;27.73;;;20.67;;
58472;SDS011;44775;51.564;5.460;2023-05-14T05:53:21;20.98;;;15.48;;
58472;SDS011;44775;51.564;5.460;2023-05-14T05:55:47;10.90;;;9.43;;
58472;SDS011;44775;51.564;5.460;2023-05-14T05:58:12;13.95;;;11.40;;
58472;SDS011;44775;51.564;5.460;2023-05-14T06:00:39;19.45;;;14.63;;
58472;SDS011;44775;51.564;5.460;2023-05-14T06:03:05;20.27;;;14.95;;
58472;SDS011;44775;51.564;5.460;2023-05-14T06:05:30;15.88;;;12.45;;
58472;SDS011;44775;51.564;5.460;2023-05-14T06:07:55;26.80;;;15.82;;
58472;SDS011;44775;51.564;5.460;2023-05-14T06:10:20;19.23;;;15.35;;
58472;SDS011;44775;51.564;5.460;2023-05-14T06:12:46;18.63;;;12.70;;
58472;SDS011;44775;51.564;5.460;2023-05-14T06:15:11;22.50;;;18.50;;
58472;SDS011;44775;51.564;5.460;2023-05-14T06:17:37;16.05;;;11.25;;
58472;SDS011;44775;51.564;5.460;2023-05-14T06:20:02;13.02;;;11.05;;
58472;SDS011;44775;51.564;5.460;2023-05-14T06:22:31;18.27;;;13.73;;
58472;SDS011;44775;51.564;5.460;2023-05-14T06:24:57;11.43;;;9.25;;
58472;SDS011;44775;51.564;5.460;2023-05-14T06:27:22;21.83;;;16.23;;
58472;SDS011;44775;51.564;5.460;2023-05-14T06:29:48;14.10;;;11.10;;
58472;SDS011;44775;51.564;5.460;2023-05-14T06:32:14;12.60;;;9.38;;
58472;SDS011;44775;51.564;5.460;2023-05-14T06:34:39;22.50;;;17.10;;
58472;SDS011;44775;51.564;5.460;2023-05-14T06:37:06;21.42;;;17.17;;
58472;SDS011;44775;51.564;5.460;2023-05-14T06:39:31;22.55;;;16.05;;
58472;SDS011;44775;51.564;5.460;2023-05-14T06:41:56;13.07;;;10.50;;
58472;SDS011;44775;51.564;5.460;2023-05-14T06:44:22;15.23;;;11.70;;
58472;SDS011;44775;51.564;5.460;2023-05-14T06:46:47;19.83;;;16.65;;
58472;SDS011;44775;51.564;5.460;2023-05-14T06:49:12;16.08;;;12.38;;
58472;SDS011;44775;51.564;5.460;2023-05-14T06:51:37;13.63;;;11.27;;
58472;SDS011;44775;51.564;5.460;2023-05-14T06:54:04;16.05;;;12.73;;
58472;SDS011;44775;51.564;5.460;2023-05-14T06:56:30;13.80;;;10.52;;
58472;SDS011;44775;51.564;5.460;2023-05-14T06:58:55;19.88;;;15.15;;
58472;SDS011;44775;51.564;5.460;2023-05-14T07:01:20;15.68;;;12.95;;
58472;SDS011;44775;51.564;5.460;2023-05-14T07:03:45;22.38;;;15.63;;
58472;SDS011;44775;51.564;5.460;2023-05-14T07:06:11;21.63;;;15.93;;
58472;SDS011;44775;51.564;5.460;2023-05-14T07:08:36;21.20;;;16.48;;
58472;SDS011;44775;51.564;5.460;2023-05-14T07:11:01;17.60;;;14.02;;
58472;SDS011;44775;51.564;5.460;2023-05-14T07:13:27;23.23;;;16.05;;
58472;SDS011;44775;51.564;5.460;2023-05-14T07:15:52;26.52;;;16.52;;
58472;SDS011;44775;51.564;5.460;2023-05-14T07:18:19;21.20;;;15.88;;
58472;SDS011;44775;51.564;5.460;2023-05-14T07:20:45;10.98;;;9.38;;
58472;SDS011;44775;51.564;5.460;2023-05-14T07:23:10;17.00;;;14.32;;
58472;SDS011;44775;51.564;5.460;2023-05-14T07:25:35;18.60;;;13.80;;
58472;SDS011;44775;51.564;5.460;2023-05-14T07:28:01;9.98;;;8.85;;
58472;SDS011;44775;51.564;5.460;2023-05-14T07:30:26;22.52;;;14.23;;
58472;SDS011;44775;51.564;5.460;2023-05-14T07:32:51;8.30;;;7.50;;
58472;SDS011;44775;51.564;5.460;2023-05-14T07:35:17;18.20;;;14.45;;
58472;SDS011;44775;51.564;5.460;2023-05-14T07:37:42;14.57;;;10.85;;
58472;SDS011;44775;51.564;5.460;2023-05-14T07:40:08;9.43;;;8.45;;
58472;SDS011;44775;51.564;5.460;2023-05-14T07:42:33;18.48;;;13.18;;
58472;SDS011;44775;51.564;5.460;2023-05-14T07:44:59;16.10;;;12.02;;
58472;SDS011;44775;51.564;5.460;2023-05-14T07:47:24;18.20;;;13.32;;
58472;SDS011;44775;51.564;5.460;2023-05-14T07:49:52;17.95;;;14.80;;
58472;SDS011;44775;51.564;5.460;2023-05-14T07:54:43;13.40;;;10.05;;
58472;SDS011;44775;51.564;5.460;2023-05-14T07:57:09;21.25;;;16.00;;
58472;SDS011;44775;51.564;5.460;2023-05-14T07:59:34;13.30;;;8.68;;
58472;SDS011;44775;51.564;5.460;2023-05-14T08:01:59;15.75;;;12.65;;
58472;SDS011;44775;51.564;5.460;2023-05-14T08:04:25;17.13;;;13.68;;
58472;SDS011;44775;51.564;5.460;2023-05-14T08:06:50;18.35;;;12.05;;
58472;SDS011;44775;51.564;5.460;2023-05-14T08:09:15;10.77;;;9.27;;
58472;SDS011;44775;51.564;5.460;2023-05-14T08:11:41;16.98;;;13.05;;
58472;SDS011;44775;51.564;5.460;2023-05-14T08:14:06;9.27;;;7.47;;
58472;SDS011;44775;51.564;5.460;2023-05-14T08:16:31;13.23;;;9.70;;
58472;SDS011;44775;51.564;5.460;2023-05-14T08:18:57;12.48;;;10.63;;
58472;SDS011;44775;51.564;5.460;2023-05-14T08:21:22;19.13;;;14.52;;
58472;SDS011;44775;51.564;5.460;2023-05-14T08:23:47;10.50;;;8.98;;
58472;SDS011;44775;51.564;5.460;2023-05-14T08:26:12;9.40;;;8.30;;
58472;SDS011;44775;51.564;5.460;2023-05-14T08:28:38;7.60;;;6.50;;
58472;SDS011;44775;51.564;5.460;2023-05-14T08:31:03;16.58;;;13.02;;
58472;SDS011;44775;51.564;5.460;2023-05-14T08:33:28;9.60;;;8.60;;
58472;SDS011;44775;51.564;5.460;2023-05-14T08:35:54;18.05;;;14.20;;
58472;SDS011;44775;51.564;5.460;2023-05-14T08:38:20;8.82;;;7.93;;
58472;SDS011;44775;51.564;5.460;2023-05-14T08:40:48;5.72;;;5.13;;
58472;SDS011;44775;51.564;5.460;2023-05-14T08:43:20;12.18;;;9.45;;
58472;SDS011;44775;51.564;5.460;2023-05-14T08:45:51;18.40;;;12.70;;
58472;SDS011;44775;51.564;5.460;2023-05-14T08:48:21;9.18;;;7.85;;
58472;SDS011;44775;51.564;5.460;2023-05-14T08:50:47;11.30;;;9.98;;
58472;SDS011;44775;51.564;5.460;2023-05-14T08:53:13;6.97;;;6.18;;
58472;SDS011;44775;51.564;5.460;2023-05-14T08:55:38;10.52;;;7.82;;
58472;SDS011;44775;51.564;5.460;2023-05-14T08:58:03;11.60;;;8.38;;
58472;SDS011;44775;51.564;5.460;2023-05-14T09:00:29;8.35;;;7.13;;
58472;SDS011;44775;51.564;5.460;2023-05-14T09:02:54;14.18;;;11.32;;
58472;SDS011;44775;51.564;5.460;2023-05-14T09:05:21;14.50;;;8.82;;
58472;SDS011;44775;51.564;5.460;2023-05-14T09:07:46;8.77;;;7.57;;
58472;SDS011;44775;51.564;5.460;2023-05-14T09:10:12;11.07;;;8.45;;
58472;SDS011;44775;51.564;5.460;2023-05-14T09:12:39;8.40;;;7.40;;
58472;SDS011;44775;51.564;5.460;2023-05-14T09:15:04;7.78;;;6.93;;
58472;SDS011;44775;51.564;5.460;2023-05-14T09:17:31;11.30;;;9.63;;
58472;SDS011;44775;51.564;5.460;2023-05-14T09:19:57;9.10;;;8.20;;
58472;SDS011;44775;51.564;5.460;2023-05-14T09:22:22;7.55;;;6.30;;
58472;SDS011;44775;51.564;5.460;2023-05-14T09:25:00;10.98;;;8.52;;
58472;SDS011;44775;51.564;5.460;2023-05-14T09:27:28;7.60;;;6.07;;
58472;SDS011;44775;51.564;5.460;2023-05-14T09:29:53;11.68;;;8.93;;
58472;SDS011;44775;51.564;5.460;2023-05-14T09:32:19;7.97;;;6.07;;
58472;SDS011;44775;51.564;5.460;2023-05-14T09:34:44;12.27;;;9.40;;
58472;SDS011;44775;51.564;5.460;2023-05-14T09:37:09;9.88;;;8.32;;
58472;SDS011;44775;51.564;5.460;2023-05-14T09:39:35;9.85;;;8.07;;
58472;SDS011;44775;51.564;5.460;2023-05-14T09:42:01;11.30;;;7.50;;
58472;SDS011;44775;51.564;5.460;2023-05-14T09:44:27;9.18;;;6.50;;
58472;SDS011;44775;51.564;5.460;2023-05-14T09:46:53;8.60;;;6.80;;
58472;SDS011;44775;51.564;5.460;2023-05-14T09:49:19;6.88;;;5.90;;
58472;SDS011;44775;51.564;5.460;2023-05-14T09:51:45;5.65;;;5.03;;
58472;SDS011;44775;51.564;5.460;2023-05-14T09:54:10;8.48;;;6.25;;
58472;SDS011;44775;51.564;5.460;2023-05-14T09:56:36;5.55;;;4.70;;
58472;SDS011;44775;51.564;5.460;2023-05-14T09:59:03;9.38;;;8.10;;
58472;SDS011;44775;51.564;5.460;2023-05-14T10:01:29;12.43;;;7.85;;
58472;SDS011;44775;51.564;5.460;2023-05-14T10:03:55;9.95;;;7.00;;
58472;SDS011;44775;51.564;5.460;2023-05-14T10:06:22;13.60;;;9.05;;
58472;SDS011;44775;51.564;5.460;2023-05-14T10:08:51;7.30;;;6.32;;
58472;SDS011;44775;51.564;5.460;2023-05-14T10:11:20;9.40;;;6.65;;
58472;SDS011;44775;51.564;5.460;2023-05-14T10:14:51;9.75;;;7.18;;
58472;SDS011;44775;51.564;5.460;2023-05-14T10:16:50;8.57;;;7.65;;
58472;SDS011;44775;51.564;5.460;2023-05-14T10:19:19;5.22;;;4.72;;
58472;SDS011;44775;51.564;5.460;2023-05-14T10:21:47;7.18;;;6.10;;
58472;SDS011;44775;51.564;5.460;2023-05-14T10:24:15;11.02;;;7.07;;
58472;SDS011;44775;51.564;5.460;2023-05-14T10:26:41;10.65;;;7.65;;
58472;SDS011;44775;51.564;5.460;2023-05-14T10:29:10;6.38;;;4.88;;
58472;SDS011;44775;51.564;5.460;2023-05-14T10:31:48;8.50;;;6.00;;
58472;SDS011;44775;51.564;5.460;2023-05-14T10:37:11;8.65;;;4.88;;
58472;SDS011;44775;51.564;5.460;2023-05-14T10:42:17;6.97;;;5.05;;
58472;SDS011;44775;51.564;5.460;2023-05-14T10:47:25;3.67;;;3.38;;
58472;SDS011;44775;51.564;5.460;2023-05-14T10:49:54;6.05;;;5.45;;
58472;SDS011;44775;51.564;5.460;2023-05-14T10:52:22;7.03;;;5.47;;
58472;SDS011;44775;51.564;5.460;2023-05-14T10:54:57;10.38;;;6.20;;
58472;SDS011;44775;51.564;5.460;2023-05-14T10:57:25;4.65;;;4.10;;
58472;SDS011;44775;51.564;5.460;2023-05-14T10:59:53;12.48;;;6.80;;
58472;SDS011;44775;51.564;5.460;2023-05-14T11:02:29;4.68;;;4.22;;
58472;SDS011;44775;51.564;5.460;2023-05-14T11:05:04;4.60;;;4.07;;
58472;SDS011;44775;51.564;5.460;2023-05-14T11:07:32;3.28;;;2.97;;
58472;SDS011;44775;51.564;5.460;2023-05-14T11:10:03;6.93;;;4.40;;
58472;SDS011;44775;51.564;5.460;2023-05-14T11:12:31;4.53;;;3.90;;
58472;SDS011;44775;51.564;5.460;2023-05-14T11:14:58;4.65;;;3.83;;
58472;SDS011;44775;51.564;5.460;2023-05-14T11:17:26;6.00;;;5.40;;
58472;SDS011;44775;51.564;5.460;2023-05-14T11:19:53;7.82;;;4.85;;
58472;SDS011;44775;51.564;5.460;2023-05-14T11:22:19;5.10;;;4.55;;
58472;SDS011;44775;51.564;5.460;2023-05-14T11:24:44;9.18;;;5.72;;
58472;SDS011;44775;51.564;5.460;2023-05-14T11:27:10;8.38;;;6.47;;
58472;SDS011;44775;51.564;5.460;2023-05-14T11:29:36;4.97;;;4.47;;
58472;SDS011;44775;51.564;5.460;2023-05-14T11:32:03;6.05;;;4.03;;
58472;SDS011;44775;51.564;5.460;2023-05-14T11:36:55;13.38;;;5.20;;
58472;SDS011;44775;51.564;5.460;2023-05-14T11:39:20;4.65;;;3.85;;
58472;SDS011;44775;51.564;5.460;2023-05-14T11:41:46;7.15;;;6.07;;
58472;SDS011;44775;51.564;5.460;2023-05-14T11:44:11;7.47;;;5.47;;
58472;SDS011;44775;51.564;5.460;2023-05-14T11:46:36;5.55;;;4.63;;
58472;SDS011;44775;51.564;5.460;2023-05-14T11:49:05;4.50;;;3.13;;
58472;SDS011;44775;51.564;5.460;2023-05-14T11:51:30;6.22;;;4.57;;
58472;SDS011;44775;51.564;5.460;2023-05-14T11:53:56;3.13;;;2.80;;
58472;SDS011;44775;51.564;5.460;2023-05-14T11:56:22;5.82;;;4.50;;
58472;SDS011;44775;51.564;5.460;2023-05-14T11:58:48;7.03;;;4.00;;
58472;SDS011;44775;51.564;5.460;2023-05-14T12:01:13;9.23;;;5.40;;
58472;SDS011;44775;51.564;5.460;2023-05-14T12:03:39;4.45;;;3.58;;
58472;SDS011;44775;51.564;5.460;2023-05-14T12:06:05;5.97;;;4.40;;
58472;SDS011;44775;51.564;5.460;2023-05-14T12:08:32;7.97;;;4.57;;
58472;SDS011;44775;51.564;5.460;2023-05-14T12:10:58;5.00;;;4.18;;
58472;SDS011;44775;51.564;5.460;2023-05-14T12:13:28;6.95;;;4.38;;
58472;SDS011;44775;51.564;5.460;2023-05-14T12:15:55;3.22;;;2.92;;
58472;SDS011;44775;51.564;5.460;2023-05-14T12:18:25;6.85;;;3.40;;
58472;SDS011;44775;51.564;5.460;2023-05-14T12:20:52;5.10;;;3.75;;
58472;SDS011;44775;51.564;5.460;2023-05-14T12:23:28;4.13;;;3.35;;
58472;SDS011;44775;51.564;5.460;2023-05-14T12:25:54;4.78;;;2.88;;
58472;SDS011;44775;51.564;5.460;2023-05-14T12:28:21;8.57;;;4.68;;
58472;SDS011;44775;51.564;5.460;2023-05-14T12:30:47;5.15;;;3.72;;
58472;SDS011;44775;51.564;5.460;2023-05-14T12:33:13;5.75;;;3.97;;
58472;SDS011;44775;51.564;5.460;2023-05-14T12:35:38;4.40;;;3.53;;
58472;SDS011;44775;51.564;5.460;2023-05-14T12:38:04;3.83;;;2.97;;
58472;SDS011;44775;51.564;5.460;2023-05-14T12:40:30;5.47;;;2.90;;
58472;SDS011;44775;51.564;5.460;2023-05-14T12:42:55;2.70;;;2.38;;
58472;SDS011;44775;51.564;5.460;2023-05-14T12:45:21;3.92;;;2.70;;
58472;SDS011;44775;51.564;5.460;2023-05-14T12:47:46;3.60;;;2.50;;
58472;SDS011;44775;51.564;5.460;2023-05-14T12:50:11;5.18;;;2.53;;
58472;SDS011;44775;51.564;5.460;2023-05-14T12:52:37;3.72;;;2.85;;
58472;SDS011;44775;51.564;5.460;2023-05-14T12:55:02;4.95;;;3.30;;
58472;SDS011;44775;51.564;5.460;2023-05-14T12:57:28;4.72;;;3.22;;
58472;SDS011;44775;51.564;5.460;2023-05-14T12:59:54;5.32;;;3.78;;
58472;SDS011;44775;51.564;5.460;2023-05-14T13:02:19;3.08;;;2.78;;
58472;SDS011;44775;51.564;5.460;2023-05-14T13:04:45;2.85;;;2.45;;
58472;SDS011;44775;51.564;5.460;2023-05-14T13:07:11;3.38;;;2.53;;
58472;SDS011;44775;51.564;5.460;2023-05-14T13:09:36;5.95;;;3.00;;
58472;SDS011;44775;51.564;5.460;2023-05-14T13:12:01;4.75;;;3.22;;
58472;SDS011;44775;51.564;5.460;2023-05-14T13:14:26;4.07;;;2.78;;
58472;SDS011;44775;51.564;5.460;2023-05-14T13:16:52;2.97;;;2.43;;
58472;SDS011;44775;51.564;5.460;2023-05-14T13:19:17;4.45;;;2.75;;
58472;SDS011;44775;51.564;5.460;2023-05-14T13:21:42;2.55;;;2.33;;
58472;SDS011;44775;51.564;5.460;2023-05-14T13:24:08;5.05;;;2.90;;
58472;SDS011;44775;51.564;5.460;2023-05-14T13:26:34;4.82;;;2.95;;
58472;SDS011;44775;51.564;5.460;2023-05-14T13:29:00;5.22;;;3.15;;
58472;SDS011;44775;51.564;5.460;2023-05-14T13:31:26;3.42;;;3.10;;
58472;SDS011;44775;51.564;5.460;2023-05-14T13:33:51;3.72;;;2.92;;
58472;SDS011;44775;51.564;5.460;2023-05-14T13:36:17;3.60;;;2.90;;
58472;SDS011;44775;51.564;5.460;2023-05-14T13:38:42;2.95;;;2.55;;
58472;SDS011;44775;51.564;5.460;2023-05-14T13:41:09;3.63;;;2.60;;
58472;SDS011;44775;51.564;5.460;2023-05-14T13:43:35;3.20;;;2.90;;
58472;SDS011;44775;51.564;5.460;2023-05-14T13:46:00;4.60;;;3.33;;
58472;SDS011;44775;51.564;5.460;2023-05-14T13:48:27;4.17;;;3.70;;
58472;SDS011;44775;51.564;5.460;2023-05-14T13:50:53;5.10;;;4.07;;
58472;SDS011;44775;51.564;5.460;2023-05-14T13:53:19;5.38;;;3.83;;
58472;SDS011;44775;51.564;5.460;2023-05-14T13:55:45;6.25;;;4.00;;
58472;SDS011;44775;51.564;5.460;2023-05-14T13:58:10;7.50;;;4.15;;
58472;SDS011;44775;51.564;5.460;2023-05-14T14:00:36;4.60;;;3.55;;
58472;SDS011;44775;51.564;5.460;2023-05-14T14:03:01;3.83;;;3.10;;
58472;SDS011;44775;51.564;5.460;2023-05-14T14:05:27;6.82;;;4.13;;
58472;SDS011;44775;51.564;5.460;2023-05-14T14:07:53;4.05;;;3.55;;
58472;SDS011;44775;51.564;5.460;2023-05-14T14:10:19;5.82;;;3.90;;
58472;SDS011;44775;51.564;5.460;2023-05-14T14:12:45;6.82;;;4.45;;
58472;SDS011;44775;51.564;5.460;2023-05-14T14:15:10;7.90;;;4.22;;
58472;SDS011;44775;51.564;5.460;2023-05-14T14:17:36;5.10;;;3.92;;
58472;SDS011;44775;51.564;5.460;2023-05-14T14:20:02;6.35;;;4.70;;
58472;SDS011;44775;51.564;5.460;2023-05-14T14:22:29;8.57;;;5.00;;
58472;SDS011;44775;51.564;5.460;2023-05-14T14:24:56;7.57;;;4.40;;
58472;SDS011;44775;51.564;5.460;2023-05-14T14:27:22;5.53;;;4.00;;
58472;SDS011;44775;51.564;5.460;2023-05-14T14:29:47;5.25;;;3.53;;
58472;SDS011;44775;51.564;5.460;2023-05-14T14:32:12;4.10;;;3.45;;
58472;SDS011;44775;51.564;5.460;2023-05-14T14:34:38;4.28;;;3.88;;
58472;SDS011;44775;51.564;5.460;2023-05-14T14:37:03;5.03;;;4.00;;
58472;SDS011;44775;51.564;5.460;2023-05-14T14:39:28;6.70;;;4.05;;
58472;SDS011;44775;51.564;5.460;2023-05-14T14:41:54;4.68;;;3.70;;